Time;durP1;ratioP1;P1;durP2;ratioP2;P2;SDS_P1;SDS_P2;PMS_P1;PMS_P2;Temp;Humidity;BMP_temperature;BMP_pressure;BME280_temperature;BME280_humidity;BME280_pressure;Samples;Min_cycle;Max_cycle;Signal;HPM_P1;HPM_P2
2022/07/21 00:02:44;;;;;;;6.07;3.10;;;;;;;;;;5004684;28;20177;-85
2022/07/21 00:05:48;;;;;;;3.97;3.20;;;;;;;;;;5014915;28;20182;-85
2022/07/21 00:08:52;;;;;;;5.57;3.30;;;;;;;;;;5004290;28;20197;-85
2022/07/21 00:11:56;;;;;;;4.43;2.87;;;;;;;;;;5004097;28;20225;-85
2022/07/21 00:15:01;;;;;;;4.00;3.23;;;;;;;;;;5004315;28;20178;-86
2022/07/21 00:18:05;;;;;;;3.47;3.13;;;;;;;;;;5015960;28;20177;-85
2022/07/21 00:21:09;;;;;;;6.10;3.77;;;;;;;;;;5003304;28;20669;-85
2022/07/21 00:24:14;;;;;;;5.63;3.47;;;;;;;;;;5003313;28;20177;-85
2022/07/21 00:27:17;;;;;;;4.00;3.60;;;;;;;;;;5003402;28;20182;-85
2022/07/21 00:30:22;;;;;;;5.27;3.50;;;;;;;;;;5003661;28;20225;-85
2022/07/21 00:33:26;;;;;;;6.17;3.77;;;;;;;;;;5018362;28;20633;-85
2022/07/21 00:36:31;;;;;;;5.20;3.60;;;;;;;;;;5007080;28;20181;-85
2022/07/21 00:39:35;;;;;;;4.40;4.00;;;;;;;;;;5007456;28;20217;-85
2022/07/21 00:42:39;;;;;;;4.23;3.73;;;;;;;;;;5019246;28;20177;-85
2022/07/21 00:45:43;;;;;;;4.27;3.87;;;;;;;;;;5007757;28;20189;-85
2022/07/21 00:48:48;;;;;;;4.87;3.80;;;;;;;;;;5007699;28;20185;-85
2022/07/21 00:51:52;;;;;;;4.33;3.93;;;;;;;;;;5007639;28;20213;-86
2022/07/21 00:54:56;;;;;;;5.37;3.60;;;;;;;;;;5005820;28;20189;-86
2022/07/21 00:58:00;;;;;;;3.87;3.57;;;;;;;;;;5016332;28;20205;-85
2022/07/21 01:01:05;;;;;;;4.90;3.77;;;;;;;;;;5016383;28;20209;-85
2022/07/21 01:04:09;;;;;;;4.00;3.57;;;;;;;;;;5016297;28;20177;-85
2022/07/21 01:07:13;;;;;;;4.63;3.97;;;;;;;;;;5005151;28;20201;-86
2022/07/21 01:10:20;;;;;;;5.23;3.83;;;;;;;;;;4993520;28;20225;-85
2022/07/21 01:13:24;;;;;;;4.27;3.87;;;;;;;;;;5005194;28;20181;-85
2022/07/21 01:16:28;;;;;;;5.97;4.13;;;;;;;;;;5005169;28;20181;-85
2022/07/21 01:19:33;;;;;;;4.40;3.43;;;;;;;;;;5004989;28;20209;-85
2022/07/21 01:22:39;;;;;;;4.10;3.70;;;;;;;;;;4994225;28;20178;-85
2022/07/21 01:25:48;;;;;;;6.53;4.27;;;;;;;;;;4993594;28;20224;-85
2022/07/21 01:28:52;;;;;;;4.50;3.73;;;;;;;;;;5004769;28;20198;-85
2022/07/21 01:31:56;;;;;;;4.10;3.33;;;;;;;;;;5005051;28;20210;-85
2022/07/21 01:35:01;;;;;;;4.10;3.70;;;;;;;;;;4993666;28;20644;-86
2022/07/21 01:41:28;;;;;;;5.20;4.00;;;;;;;;;;5005062;28;20174;-86
2022/07/21 01:41:29;;;;;;;6.80;3.70;;;;;;;;;;5015931;28;20629;-86
2022/07/21 01:44:33;;;;;;;5.13;4.63;;;;;;;;;;5004303;28;20182;-86
2022/07/21 01:47:38;;;;;;;4.70;4.20;;;;;;;;;;4993684;28;20521;-86
2022/07/21 01:50:42;;;;;;;4.67;4.17;;;;;;;;;;5015417;28;20692;-86
2022/07/21 01:53:46;;;;;;;6.63;4.00;;;;;;;;;;5004352;28;20181;-86
2022/07/21 01:56:51;;;;;;;5.83;4.13;;;;;;;;;;5004306;28;20174;-86
2022/07/21 01:59:55;;;;;;;8.13;4.80;;;;;;;;;;5004218;28;20217;-85
2022/07/21 02:02:59;;;;;;;5.73;5.00;;;;;;;;;;5004244;28;20177;-86
2022/07/21 02:06:05;;;;;;;5.17;4.50;;;;;;;;;;5004601;28;20185;-86
2022/07/21 02:09:09;;;;;;;6.97;4.33;;;;;;;;;;5003793;28;20565;-85
2022/07/21 02:12:13;;;;;;;6.77;4.30;;;;;;;;;;5003652;28;20209;-86
2022/07/21 02:15:17;;;;;;;7.00;4.97;;;;;;;;;;5003964;28;20185;-86
2022/07/21 02:18:21;;;;;;;5.57;5.07;;;;;;;;;;5015002;28;20197;-86
2022/07/21 02:21:25;;;;;;;7.53;4.70;;;;;;;;;;5004241;28;20178;-86
2022/07/21 02:24:29;;;;;;;10.13;5.10;;;;;;;;;;5003914;28;20174;-86
2022/07/21 02:27:33;;;;;;;5.87;4.53;;;;;;;;;;5003647;28;20181;-85
2022/07/21 02:30:38;;;;;;;5.93;4.80;;;;;;;;;;5015322;28;20221;-85
2022/07/21 02:33:42;;;;;;;4.83;4.27;;;;;;;;;;5003270;28;20197;-86
2022/07/21 02:36:46;;;;;;;5.63;4.90;;;;;;;;;;5005358;28;20181;-84
2022/07/21 02:39:50;;;;;;;7.83;4.77;;;;;;;;;;5004434;28;20216;-86
2022/07/21 02:42:55;;;;;;;5.93;5.33;;;;;;;;;;5003615;28;20541;-84
2022/07/21 02:45:59;;;;;;;8.03;5.20;;;;;;;;;;5004301;28;20177;-85
2022/07/21 02:49:03;;;;;;;7.67;4.80;;;;;;;;;;5002999;28;20173;-86
2022/07/21 02:52:07;;;;;;;8.03;5.10;;;;;;;;;;5003161;28;20537;-86
2022/07/21 02:55:11;;;;;;;7.17;5.00;;;;;;;;;;5014237;28;20185;-85
2022/07/21 02:58:21;;;;;;;8.63;5.03;;;;;;;;;;5003978;28;20186;-85
2022/07/21 03:01:25;;;;;;;5.30;4.80;;;;;;;;;;5003528;28;20178;-85
2022/07/21 03:04:29;;;;;;;8.33;5.30;;;;;;;;;;5003282;28;20193;-84
2022/07/21 03:07:33;;;;;;;6.23;5.03;;;;;;;;;;5003622;28;20181;-84
2022/07/21 03:10:38;;;;;;;8.60;4.93;;;;;;;;;;5038581;23;20702;-86
2022/07/21 03:13:42;;;;;;;6.23;5.30;;;;;;;;;;5011556;28;20635;-86
2022/07/21 03:16:46;;;;;;;5.93;5.20;;;;;;;;;;5011255;28;20185;-86
2022/07/21 03:19:50;;;;;;;7.67;5.07;;;;;;;;;;5022560;28;20212;-86
2022/07/21 03:22:55;;;;;;;9.40;5.23;;;;;;;;;;5033897;28;20185;-86
2022/07/21 03:25:59;;;;;;;6.67;5.50;;;;;;;;;;5011041;28;20177;-86
2022/07/21 03:29:04;;;;;;;7.57;5.57;;;;;;;;;;5022206;28;20631;-86
2022/07/21 03:32:08;;;;;;;6.47;5.33;;;;;;;;;;5010382;28;20572;-86
2022/07/21 03:35:13;;;;;;;7.03;4.53;;;;;;;;;;5021969;28;20196;-86
2022/07/21 03:38:17;;;;;;;10.77;5.67;;;;;;;;;;4999710;28;20177;-86
2022/07/21 03:41:21;;;;;;;8.77;6.30;;;;;;;;;;5021528;28;20212;-86
2022/07/21 03:44:25;;;;;;;9.57;5.93;;;;;;;;;;5010616;28;20189;-86
2022/07/21 03:47:30;;;;;;;8.90;6.10;;;;;;;;;;5021723;28;20172;-86
2022/07/21 03:50:35;;;;;;;9.00;6.80;;;;;;;;;;5010602;28;20212;-85
2022/07/21 03:53:39;;;;;;;7.30;6.47;;;;;;;;;;5010639;28;20185;-86
2022/07/21 03:56:43;;;;;;;9.83;6.73;;;;;;;;;;5010322;28;20524;-86
2022/07/21 03:59:47;;;;;;;7.73;6.93;;;;;;;;;;5021512;28;20212;-86
2022/07/21 04:02:52;;;;;;;7.90;6.10;;;;;;;;;;4999266;28;20185;-86
2022/07/21 04:05:56;;;;;;;8.47;6.77;;;;;;;;;;5021047;28;20517;-86
2022/07/21 04:09:01;;;;;;;12.13;6.97;;;;;;;;;;5010032;28;20671;-86
2022/07/21 04:12:05;;;;;;;8.00;6.50;;;;;;;;;;5021249;28;20216;-86
2022/07/21 04:15:11;;;;;;;7.80;7.10;;;;;;;;;;5010267;28;20181;-86
2022/07/21 04:18:15;;;;;;;7.90;7.17;;;;;;;;;;5021558;28;20177;-86
2022/07/21 04:21:19;;;;;;;7.77;7.07;;;;;;;;;;5021357;28;20216;-86
2022/07/21 04:24:23;;;;;;;8.17;7.47;;;;;;;;;;5010034;28;20181;-86
2022/07/21 04:27:27;;;;;;;8.80;7.93;;;;;;;;;;5009807;28;20172;-86
2022/07/21 04:30:32;;;;;;;8.73;7.73;;;;;;;;;;5021405;28;20212;-87
2022/07/21 04:33:36;;;;;;;10.33;9.30;;;;;;;;;;5021365;28;20564;-87
2022/07/21 04:36:40;;;;;;;12.00;9.80;;;;;;;;;;5032441;28;20180;-87
2022/07/21 04:39:44;;;;;;;10.93;9.80;;;;;;;;;;5009760;28;20219;-87
2022/07/21 04:42:48;;;;;;;12.43;10.33;;;;;;;;;;5021157;28;20190;-87
2022/07/21 04:45:52;;;;;;;12.40;11.10;;;;;;;;;;5021475;28;20651;-87
2022/07/21 04:48:56;;;;;;;12.67;11.13;;;;;;;;;;5010200;28;20188;-86
2022/07/21 04:52:01;;;;;;;15.47;12.93;;;;;;;;;;5009908;28;20211;-86
2022/07/21 04:55:05;;;;;;;13.53;12.17;;;;;;;;;;5009866;28;20192;-86
2022/07/21 04:58:09;;;;;;;12.50;10.97;;;;;;;;;;5021042;28;20208;-86
2022/07/21 05:01:13;;;;;;;13.97;12.50;;;;;;;;;;5032318;28;20225;-86
2022/07/21 05:04:17;;;;;;;14.60;12.47;;;;;;;;;;5020926;28;20180;-87
2022/07/21 05:07:22;;;;;;;15.80;13.27;;;;;;;;;;5021003;28;20187;-87
2022/07/21 05:10:26;;;;;;;15.70;12.63;;;;;;;;;;5032737;28;20231;-87
2022/07/21 05:13:30;;;;;;;18.27;14.13;;;;;;;;;;5021040;28;20220;-87
2022/07/21 05:16:34;;;;;;;17.50;12.80;;;;;;;;;;5009911;28;20192;-87
2022/07/21 05:19:38;;;;;;;15.90;12.73;;;;;;;;;;5012697;28;20219;-87
2022/07/21 05:22:42;;;;;;;14.00;12.50;;;;;;;;;;5024553;28;20211;-86
2022/07/21 05:25:46;;;;;;;15.70;13.93;;;;;;;;;;5024336;28;20654;-87
2022/07/21 05:28:50;;;;;;;17.50;14.07;;;;;;;;;;5024299;28;20184;-86
2022/07/21 05:31:54;;;;;;;15.50;13.47;;;;;;;;;;5024108;28;20690;-86
2022/07/21 05:34:59;;;;;;;16.87;14.03;;;;;;;;;;5012891;28;20547;-87
2022/07/21 05:38:03;;;;;;;14.67;13.13;;;;;;;;;;5024035;28;20192;-86
2022/07/21 05:41:07;;;;;;;18.17;13.37;;;;;;;;;;5012483;28;20227;-86
2022/07/21 05:44:11;;;;;;;14.80;12.73;;;;;;;;;;5012655;28;20195;-86
2022/07/21 05:47:15;;;;;;;15.30;13.37;;;;;;;;;;5012653;28;20540;-86
2022/07/21 05:50:19;;;;;;;14.90;13.30;;;;;;;;;;5023686;28;20223;-86
2022/07/21 05:53:23;;;;;;;16.63;13.43;;;;;;;;;;5023599;28;20218;-86
2022/07/21 05:56:27;;;;;;;17.20;15.03;;;;;;;;;;5023273;28;20199;-86
2022/07/21 05:59:32;;;;;;;18.00;13.90;;;;;;;;;;5012069;28;20227;-86
2022/07/21 06:02:37;;;;;;;14.93;13.30;;;;;;;;;;5023601;28;20528;-86
2022/07/21 06:05:41;;;;;;;17.63;13.67;;;;;;;;;;5012352;28;20184;-86
2022/07/21 06:08:48;;;;;;;15.10;13.50;;;;;;;;;;5023461;28;20188;-86
2022/07/21 06:11:52;;;;;;;14.43;13.03;;;;;;;;;;5011907;28;20176;-86
2022/07/21 06:14:56;;;;;;;15.00;13.30;;;;;;;;;;5023378;28;20646;-86
2022/07/21 06:18:00;;;;;;;15.23;13.63;;;;;;;;;;5034378;28;20188;-86
2022/07/21 06:21:05;;;;;;;14.10;12.70;;;;;;;;;;5012221;28;20702;-86
2022/07/21 06:24:09;;;;;;;15.77;14.07;;;;;;;;;;5011952;28;20188;-86
2022/07/21 06:27:13;;;;;;;14.97;13.33;;;;;;;;;;5011682;28;20212;-86
2022/07/21 06:30:17;;;;;;;14.63;13.00;;;;;;;;;;5022925;28;20243;-87
2022/07/21 06:33:22;;;;;;;16.00;14.40;;;;;;;;;;5023030;28;20212;-87
2022/07/21 06:36:26;;;;;;;15.77;14.07;;;;;;;;;;5011714;28;20658;-86
2022/07/21 06:39:30;;;;;;;15.03;13.43;;;;;;;;;;5023147;28;20223;-87
2022/07/21 06:42:34;;;;;;;14.77;13.27;;;;;;;;;;5011320;28;20180;-87
2022/07/21 06:45:38;;;;;;;15.37;13.63;;;;;;;;;;5022781;28;20180;-86
2022/07/21 06:48:42;;;;;;;14.90;13.50;;;;;;;;;;5022321;28;20563;-87
2022/07/21 06:51:46;;;;;;;18.03;15.10;;;;;;;;;;5022655;28;20187;-87
2022/07/21 06:54:50;;;;;;;15.23;13.70;;;;;;;;;;5011431;28;20176;-87
2022/07/21 06:57:54;;;;;;;16.53;14.87;;;;;;;;;;5010988;28;20203;-87
2022/07/21 07:00:58;;;;;;;16.20;14.67;;;;;;;;;;5022153;28;20223;-87
2022/07/21 07:04:03;;;;;;;15.97;14.27;;;;;;;;;;5010945;28;20204;-87
2022/07/21 07:07:07;;;;;;;15.67;14.00;;;;;;;;;;5011001;28;20180;-86
2022/07/21 07:10:11;;;;;;;15.20;13.53;;;;;;;;;;5033374;28;20579;-87
2022/07/21 07:13:17;;;;;;;14.93;13.33;;;;;;;;;;5010950;28;20216;-86
2022/07/21 07:16:21;;;;;;;13.80;12.30;;;;;;;;;;5022467;28;20532;-86
2022/07/21 07:19:26;;;;;;;13.53;12.13;;;;;;;;;;5010879;28;20187;-87
2022/07/21 07:22:30;;;;;;;12.60;11.30;;;;;;;;;;5021839;28;20678;-86
2022/07/21 07:25:35;;;;;;;11.50;10.30;;;;;;;;;;5021806;28;20207;-87
2022/07/21 07:28:39;;;;;;;15.70;10.87;;;;;;;;;;5011113;28;20188;-87
2022/07/21 07:31:43;;;;;;;11.40;10.30;;;;;;;;;;5022102;28;20658;-87
2022/07/21 07:34:47;;;;;;;12.20;10.67;;;;;;;;;;5010600;28;20655;-87
2022/07/21 07:37:52;;;;;;;11.13;9.97;;;;;;;;;;5021959;28;20191;-87
2022/07/21 07:40:56;;;;;;;13.10;10.63;;;;;;;;;;5021344;28;20226;-87
2022/07/21 07:44:00;;;;;;;11.57;10.47;;;;;;;;;;5021798;28;20203;-86
2022/07/21 07:47:04;;;;;;;13.00;11.37;;;;;;;;;;5021748;28;20191;-86
2022/07/21 07:50:11;;;;;;;15.47;11.17;;;;;;;;;;5021552;28;20222;-87
2022/07/21 07:53:15;;;;;;;13.37;11.07;;;;;;;;;;5010454;28;20686;-87
2022/07/21 07:56:19;;;;;;;12.43;11.23;;;;;;;;;;5010286;28;20196;-87
2022/07/21 07:59:23;;;;;;;11.90;10.50;;;;;;;;;;5021768;28;20219;-86
2022/07/21 08:02:28;;;;;;;13.27;11.37;;;;;;;;;;5021598;28;20543;-86
2022/07/21 08:05:32;;;;;;;12.50;11.20;;;;;;;;;;5010040;28;20192;-85
2022/07/21 08:08:36;;;;;;;13.97;12.53;;;;;;;;;;5021503;28;20187;-86
2022/07/21 08:11:40;;;;;;;13.77;12.37;;;;;;;;;;5021129;28;20654;-86
2022/07/21 08:14:44;;;;;;;13.80;12.40;;;;;;;;;;5021054;28;20702;-86
2022/07/21 08:17:48;;;;;;;15.23;12.43;;;;;;;;;;5010213;28;20184;-87
2022/07/21 08:20:52;;;;;;;14.70;13.20;;;;;;;;;;5021234;28;20223;-86
2022/07/21 08:23:57;;;;;;;15.00;13.50;;;;;;;;;;5010166;28;20176;-86
2022/07/21 08:27:01;;;;;;;15.07;13.53;;;;;;;;;;5009845;28;20180;-85
2022/07/21 08:30:06;;;;;;;16.50;14.90;;;;;;;;;;5021476;28;20219;-85
2022/07/21 08:33:10;;;;;;;16.60;14.90;;;;;;;;;;5009962;28;20216;-85
2022/07/21 08:36:14;;;;;;;15.17;13.13;;;;;;;;;;5020963;28;20682;-87
2022/07/21 08:39:18;;;;;;;15.47;13.63;;;;;;;;;;4998733;28;20186;-87
2022/07/21 08:42:23;;;;;;;14.93;13.47;;;;;;;;;;5020967;28;20184;-86
2022/07/21 08:45:27;;;;;;;13.93;12.33;;;;;;;;;;5021286;28;20184;-86
2022/07/21 08:48:31;;;;;;;14.93;13.43;;;;;;;;;;5009717;28;20544;-87
2022/07/21 08:51:36;;;;;;;17.47;13.80;;;;;;;;;;5021028;28;20192;-86
2022/07/21 08:54:40;;;;;;;14.40;12.90;;;;;;;;;;5013090;28;20231;-86
2022/07/21 08:57:44;;;;;;;14.70;13.20;;;;;;;;;;5002372;28;20192;-86
2022/07/21 09:00:49;;;;;;;13.77;12.30;;;;;;;;;;5024786;28;20227;-86
2022/07/21 09:03:54;;;;;;;13.87;12.23;;;;;;;;;;5024722;28;20646;-86
2022/07/21 09:07:06;;;;;;;12.83;11.57;;;;;;;;;;5013088;28;20200;-86
2022/07/21 09:10:10;;;;;;;12.93;11.57;;;;;;;;;;5058922;22;20235;-85
2022/07/21 09:13:14;;;;;;;14.17;12.00;;;;;;;;;;5033535;28;20222;-85
2022/07/21 09:16:48;;;;;;;13.53;12.23;;;;;;;;;;5044223;28;20672;-85
2022/07/21 09:19:52;;;;;;;12.97;11.73;;;;;;;;;;5044971;28;20234;-85
2022/07/21 09:23:05;;;;;;;16.20;12.53;;;;;;;;;;5033283;28;20183;-85
2022/07/21 09:26:09;;;;;;;13.80;12.27;;;;;;;;;;5032932;28;20199;-85
2022/07/21 09:29:13;;;;;;;14.80;12.70;;;;;;;;;;5033263;28;20191;-84
2022/07/21 09:32:21;;;;;;;12.63;11.43;;;;;;;;;;5029981;28;20218;-84
2022/07/21 09:35:25;;;;;;;13.70;12.30;;;;;;;;;;5032908;28;20199;-84
2022/07/21 09:38:34;;;;;;;13.13;11.73;;;;;;;;;;5044432;28;20207;-85
2022/07/21 09:41:38;;;;;;;13.53;12.23;;;;;;;;;;5036521;28;20231;-86
2022/07/21 09:44:49;;;;;;;14.23;12.23;;;;;;;;;;5047226;28;20184;-85
2022/07/21 09:47:53;;;;;;;15.43;12.23;;;;;;;;;;5035274;28;20658;-84
2022/07/21 09:51:19;;;;;;;14.60;13.20;;;;;;;;;;5036508;28;20222;-85
2022/07/21 09:54:23;;;;;;;13.27;11.77;;;;;;;;;;5052417;28;20215;-85
2022/07/21 09:57:28;;;;;;;13.83;12.43;;;;;;;;;;5031053;28;20187;-85
2022/07/21 10:00:33;;;;;;;13.73;12.33;;;;;;;;;;5053057;28;20222;-85
2022/07/21 10:03:37;;;;;;;13.93;12.43;;;;;;;;;;5040227;28;20179;-82
2022/07/21 10:06:42;;;;;;;12.43;11.20;;;;;;;;;;5039553;28;20196;-86
2022/07/21 10:09:47;;;;;;;12.97;11.57;;;;;;;;;;5041072;28;20195;-86
2022/07/21 10:12:51;;;;;;;13.13;11.77;;;;;;;;;;5036454;28;20191;-86
2022/07/21 10:15:57;;;;;;;15.43;12.97;;;;;;;;;;5038054;28;20191;-86
2022/07/21 10:19:27;;;;;;;14.77;13.27;;;;;;;;;;5036826;28;20247;-86
2022/07/21 10:22:57;;;;;;;14.67;13.17;;;;;;;;;;5024876;28;20199;-86
2022/07/21 10:26:05;;;;;;;14.10;12.70;;;;;;;;;;5035706;28;20191;-86
2022/07/21 10:29:09;;;;;;;14.40;12.90;;;;;;;;;;5046092;28;20206;-86
2022/07/21 10:32:17;;;;;;;14.23;12.80;;;;;;;;;;5044389;28;20206;-85
2022/07/21 10:35:30;;;;;;;14.27;12.77;;;;;;;;;;5045136;28;20208;-85
2022/07/21 10:38:36;;;;;;;15.30;12.30;;;;;;;;;;5033115;28;20195;-86
2022/07/21 10:41:51;;;;;;;13.80;12.40;;;;;;;;;;5021169;28;20227;-86
2022/07/21 10:44:55;;;;;;;15.77;12.87;;;;;;;;;;5042177;28;20195;-86
2022/07/21 10:48:01;;;;;;;13.80;12.30;;;;;;;;;;5032567;28;20206;-86
2022/07/21 10:51:16;;;;;;;13.67;12.27;;;;;;;;;;5031998;28;20298;-85
2022/07/21 10:54:22;;;;;;;15.57;13.97;;;;;;;;;;5030010;28;20207;-85
2022/07/21 10:57:28;;;;;;;14.43;12.93;;;;;;;;;;5024092;28;20184;-85
2022/07/21 11:00:36;;;;;;;14.27;12.77;;;;;;;;;;5020300;28;20223;-85
2022/07/21 11:03:42;;;;;;;13.80;12.40;;;;;;;;;;5042852;28;20199;-85
2022/07/21 11:06:47;;;;;;;14.23;12.83;;;;;;;;;;5020376;28;20195;-85
2022/07/21 11:10:16;;;;;;;13.70;12.20;;;;;;;;;;5031313;28;20226;-85
2022/07/21 11:13:25;;;;;;;14.63;13.13;;;;;;;;;;5042733;28;20198;-86
2022/07/21 11:16:42;;;;;;;14.67;12.60;;;;;;;;;;5042345;28;20567;-85
2022/07/21 11:19:49;;;;;;;14.93;12.97;;;;;;;;;;5038862;28;20199;-86
2022/07/21 11:22:54;;;;;;;14.70;13.07;;;;;;;;;;5054119;28;20187;-85
2022/07/21 11:25:58;;;;;;;14.57;12.13;;;;;;;;;;5020376;28;20184;-85
2022/07/21 11:29:06;;;;;;;17.93;13.37;;;;;;;;;;5031968;28;20195;-86
2022/07/21 11:32:11;;;;;;;16.37;13.47;;;;;;;;;;5019753;28;20206;-86
2022/07/21 11:35:15;;;;;;;14.93;13.43;;;;;;;;;;5042286;28;20223;-86
2022/07/21 11:38:20;;;;;;;14.97;13.00;;;;;;;;;;5011156;28;20196;-87
2022/07/21 11:41:24;;;;;;;14.03;12.50;;;;;;;;;;5022578;28;20230;-87
2022/07/21 11:44:28;;;;;;;15.87;12.60;;;;;;;;;;5030952;28;20186;-87
2022/07/21 11:47:32;;;;;;;13.80;12.40;;;;;;;;;;5038893;28;20200;-87
2022/07/21 11:50:37;;;;;;;13.23;11.93;;;;;;;;;;5042912;28;20233;-87
2022/07/21 11:53:45;;;;;;;14.13;12.63;;;;;;;;;;5031032;28;20219;-86
2022/07/21 11:56:50;;;;;;;14.23;12.83;;;;;;;;;;5030928;28;20209;-86
2022/07/21 11:59:57;;;;;;;13.30;12.00;;;;;;;;;;5019657;28;20226;-86
2022/07/21 12:03:05;;;;;;;15.27;11.63;;;;;;;;;;5032021;28;20189;-86
2022/07/21 12:06:10;;;;;;;12.60;11.40;;;;;;;;;;5019615;28;20188;-87
2022/07/21 12:09:14;;;;;;;13.17;11.63;;;;;;;;;;5042246;28;20186;-87
2022/07/21 12:12:34;;;;;;;13.77;11.63;;;;;;;;;;5019789;28;20191;-87
2022/07/21 12:15:41;;;;;;;13.63;11.23;;;;;;;;;;5030862;28;20221;-87
2022/07/21 12:18:44;;;;;;;14.13;12.33;;;;;;;;;;5031518;28;20196;-87
2022/07/21 12:21:52;;;;;;;12.50;11.20;;;;;;;;;;5019316;28;20232;-87
2022/07/21 12:24:57;;;;;;;13.33;10.90;;;;;;;;;;5030608;28;20202;-87
2022/07/21 12:28:06;;;;;;;14.00;12.50;;;;;;;;;;5055771;28;20191;-87
2022/07/21 12:31:14;;;;;;;11.98;10.65;;;;;;;;;;5034478;28;20224;-87
2022/07/21 12:34:19;;;;;;;13.07;11.30;;;;;;;;;;5023684;28;20215;-87
2022/07/21 12:37:53;;;;;;;13.60;10.57;;;;;;;;;;5023303;28;20199;-87
2022/07/21 12:40:57;;;;;;;12.45;10.98;;;;;;;;;;5034165;28;20234;-86
2022/07/21 12:44:02;;;;;;;12.52;11.05;;;;;;;;;;5034554;28;20188;-86
2022/07/21 12:47:16;;;;;;;12.88;11.57;;;;;;;;;;5023083;28;20184;-87
2022/07/21 12:50:20;;;;;;;11.82;10.45;;;;;;;;;;5022506;28;20223;-87
2022/07/21 12:53:24;;;;;;;10.70;9.70;;;;;;;;;;5022803;28;20647;-87
2022/07/21 12:56:32;;;;;;;12.45;9.98;;;;;;;;;;5022593;28;20185;-86
2022/07/21 12:59:36;;;;;;;14.27;10.82;;;;;;;;;;5033473;28;20209;-87
2022/07/21 13:02:54;;;;;;;11.10;9.98;;;;;;;;;;5022490;28;20546;-87
2022/07/21 13:06:00;;;;;;;11.80;9.82;;;;;;;;;;5044927;28;20187;-87
2022/07/21 13:09:04;;;;;;;11.35;9.52;;;;;;;;;;5057035;28;20189;-87
2022/07/21 13:12:08;;;;;;;11.38;9.77;;;;;;;;;;5056786;28;20646;-87
2022/07/21 13:15:14;;;;;;;13.20;11.18;;;;;;;;;;5033177;28;20219;-88
2022/07/21 13:18:18;;;;;;;11.68;10.50;;;;;;;;;;5033136;28;20681;-87
2022/07/21 13:21:22;;;;;;;12.45;10.15;;;;;;;;;;5045091;28;20229;-87
2022/07/21 13:24:27;;;;;;;10.35;9.27;;;;;;;;;;5033588;28;20187;-87
2022/07/21 13:27:31;;;;;;;11.63;9.25;;;;;;;;;;5033060;28;20197;-87
2022/07/21 13:30:34;;;;;;;13.00;9.55;;;;;;;;;;5033231;28;20218;-87
2022/07/21 13:33:39;;;;;;;10.48;9.48;;;;;;;;;;5044686;28;20198;-87
2022/07/21 13:36:43;;;;;;;12.18;9.93;;;;;;;;;;5021809;28;20183;-87
2022/07/21 13:39:47;;;;;;;14.00;10.52;;;;;;;;;;5021106;28;20185;-86
2022/07/21 13:42:51;;;;;;;11.88;10.68;;;;;;;;;;5032932;28;20213;-86
2022/07/21 13:45:55;;;;;;;10.48;9.45;;;;;;;;;;5044129;28;20187;-87
2022/07/21 13:48:59;;;;;;;11.52;9.55;;;;;;;;;;5043905;28;20187;-88
2022/07/21 13:52:03;;;;;;;10.73;9.45;;;;;;;;;;5021631;28;20194;-88
2022/07/21 13:55:09;;;;;;;10.68;9.57;;;;;;;;;;5043150;28;20218;-88
2022/07/21 13:58:13;;;;;;;12.07;9.57;;;;;;;;;;5043169;28;20199;-88
2022/07/21 14:01:18;;;;;;;12.02;10.70;;;;;;;;;;5020461;28;20226;-88
2022/07/21 14:04:23;;;;;;;11.60;10.13;;;;;;;;;;5021272;28;20201;-88
2022/07/21 14:07:27;;;;;;;13.55;10.80;;;;;;;;;;5031895;28;20205;-88
2022/07/21 14:10:33;;;;;;;13.98;9.45;;;;;;;;;;5021354;28;20719;-88
2022/07/21 14:13:37;;;;;;;10.60;9.48;;;;;;;;;;5043767;28;20196;-88
2022/07/21 14:16:41;;;;;;;10.20;9.20;;;;;;;;;;5031671;28;20188;-88
2022/07/21 14:19:47;;;;;;;10.82;9.73;;;;;;;;;;5020652;28;20188;-88
2022/07/21 14:22:50;;;;;;;10.05;9.05;;;;;;;;;;5031957;28;20183;-88
2022/07/21 14:25:54;;;;;;;11.45;10.13;;;;;;;;;;5020164;28;20175;-88
2022/07/21 14:28:59;;;;;;;11.15;8.93;;;;;;;;;;5031355;28;20183;-88
2022/07/21 14:32:03;;;;;;;9.73;8.75;;;;;;;;;;5027742;28;20197;-88
2022/07/21 14:35:08;;;;;;;10.27;8.65;;;;;;;;;;5032086;28;20230;-88
2022/07/21 14:38:12;;;;;;;10.75;8.60;;;;;;;;;;5021958;28;20185;-88
2022/07/21 14:41:42;;;;;;;9.38;8.43;;;;;;;;;;5029963;28;20597;-88
2022/07/21 14:44:47;;;;;;;10.38;8.75;;;;;;;;;;5031740;28;20196;-88
2022/07/21 14:47:53;;;;;;;13.55;9.15;;;;;;;;;;5031803;28;20180;-88
2022/07/21 14:50:57;;;;;;;8.85;7.95;;;;;;;;;;5041990;28;20220;-88
2022/07/21 14:54:01;;;;;;;11.07;8.88;;;;;;;;;;5043060;28;20176;-88
2022/07/21 14:57:06;;;;;;;10.98;7.95;;;;;;;;;;5031395;28;20185;-88
2022/07/21 15:00:11;;;;;;;9.80;8.10;;;;;;;;;;5032072;28;20229;-88
2022/07/21 15:03:15;;;;;;;8.77;7.93;;;;;;;;;;5031748;28;20185;-88
2022/07/21 15:06:24;;;;;;;9.32;8.43;;;;;;;;;;5031904;28;20635;-88
2022/07/21 15:09:28;;;;;;;9.15;8.25;;;;;;;;;;5020111;28;20188;-88
2022/07/21 15:12:32;;;;;;;9.00;7.93;;;;;;;;;;5056194;23;20231;-87
2022/07/21 15:15:37;;;;;;;9.63;8.65;;;;;;;;;;5061609;28;20199;-87
2022/07/21 15:18:41;;;;;;;8.95;7.78;;;;;;;;;;5049569;28;20669;-87
2022/07/21 15:21:45;;;;;;;7.95;7.15;;;;;;;;;;5039464;28;20215;-88
2022/07/21 15:24:49;;;;;;;8.45;7.75;;;;;;;;;;5061761;28;20188;-87
2022/07/21 15:27:53;;;;;;;8.93;8.02;;;;;;;;;;5048256;28;20192;-87
2022/07/21 15:30:58;;;;;;;9.90;7.50;;;;;;;;;;5041777;28;20643;-87
2022/07/21 15:34:02;;;;;;;9.05;8.18;;;;;;;;;;5019389;28;20184;-86
2022/07/21 15:37:06;;;;;;;8.52;7.63;;;;;;;;;;5045902;28;20670;-87
2022/07/21 15:40:11;;;;;;;10.10;8.75;;;;;;;;;;5030171;28;20199;-87
2022/07/21 15:43:15;;;;;;;12.65;8.90;;;;;;;;;;5032013;28;20220;-87
2022/07/21 15:46:20;;;;;;;9.15;7.82;;;;;;;;;;5032090;28;20214;-88
2022/07/21 15:49:24;;;;;;;9.65;8.70;;;;;;;;;;5060973;28;20651;-88
2022/07/21 15:52:28;;;;;;;8.75;8.05;;;;;;;;;;5058995;28;20219;-88
2022/07/21 15:55:33;;;;;;;8.48;7.70;;;;;;;;;;5029990;28;20224;-87
2022/07/21 15:59:33;;;;;;;10.60;8.27;;;;;;;;;;5029883;28;20182;-87
2022/07/21 16:02:12;;;;;;;8.93;8.15;;;;;;;;;;5034761;28;20226;-89
2022/07/21 16:05:19;;;;;;;8.95;8.15;;;;;;;;;;5037299;28;20636;-88
2022/07/21 16:08:23;;;;;;;8.73;7.88;;;;;;;;;;5029863;28;20201;-89
2022/07/21 16:11:29;;;;;;;9.07;8.18;;;;;;;;;;5029799;28;20225;-88
2022/07/21 16:14:37;;;;;;;8.48;7.65;;;;;;;;;;5041415;28;20641;-88
2022/07/21 16:17:44;;;;;;;8.50;7.63;;;;;;;;;;5029726;28;20698;-89
2022/07/21 16:20:48;;;;;;;9.07;7.40;;;;;;;;;;5018365;28;20202;-89
2022/07/21 16:23:52;;;;;;;9.65;8.52;;;;;;;;;;5046406;28;20194;-88
2022/07/21 16:26:56;;;;;;;9.02;8.13;;;;;;;;;;5018337;28;20194;-89
2022/07/21 16:30:00;;;;;;;9.57;8.52;;;;;;;;;;5032748;28;20673;-88
2022/07/21 16:33:04;;;;;;;8.27;7.47;;;;;;;;;;5054289;28;20218;-88
2022/07/21 16:36:08;;;;;;;9.98;8.30;;;;;;;;;;5024012;28;20214;-89
2022/07/21 16:39:13;;;;;;;9.18;8.30;;;;;;;;;;5018569;28;20183;-88
2022/07/21 16:42:17;;;;;;;9.55;8.23;;;;;;;;;;5032258;28;20224;-88
2022/07/21 16:45:22;;;;;;;8.18;7.38;;;;;;;;;;5043182;28;20190;-88
2022/07/21 16:48:26;;;;;;;11.18;8.90;;;;;;;;;;5034604;28;20188;-89
2022/07/21 16:51:30;;;;;;;10.10;8.20;;;;;;;;;;5029966;28;20228;-88
2022/07/21 16:54:34;;;;;;;8.35;7.55;;;;;;;;;;5018535;28;20589;-88
2022/07/21 16:57:38;;;;;;;10.52;9.43;;;;;;;;;;5046994;28;20200;-89
2022/07/21 17:00:42;;;;;;;9.65;8.75;;;;;;;;;;5025647;28;20190;-89
2022/07/21 17:03:46;;;;;;;9.93;8.23;;;;;;;;;;5041542;28;20207;-88
2022/07/21 17:06:50;;;;;;;9.50;8.10;;;;;;;;;;5026348;28;20192;-88
2022/07/21 17:09:55;;;;;;;12.25;8.40;;;;;;;;;;5061631;28;20174;-88
2022/07/21 17:12:59;;;;;;;9.60;8.52;;;;;;;;;;5029380;28;20235;-88
2022/07/21 17:16:04;;;;;;;8.77;7.82;;;;;;;;;;5033824;28;20208;-88
2022/07/21 17:19:08;;;;;;;9.45;8.52;;;;;;;;;;5064258;28;20183;-89
2022/07/21 17:22:12;;;;;;;9.50;8.50;;;;;;;;;;5062436;28;20209;-88
2022/07/21 17:25:16;;;;;;;11.85;8.70;;;;;;;;;;5028513;28;20190;-87
2022/07/21 17:28:21;;;;;;;11.10;9.85;;;;;;;;;;5056412;28;20188;-88
2022/07/21 17:31:25;;;;;;;9.38;8.48;;;;;;;;;;5064366;28;20211;-88
2022/07/21 17:34:29;;;;;;;10.82;8.93;;;;;;;;;;5041869;28;20179;-89
2022/07/21 17:37:33;;;;;;;10.07;9.13;;;;;;;;;;5062148;28;20233;-88
2022/07/21 17:40:37;;;;;;;9.43;8.50;;;;;;;;;;5041174;28;20186;-88
2022/07/21 17:43:41;;;;;;;9.67;8.77;;;;;;;;;;5040770;28;20195;-88
2022/07/21 17:46:46;;;;;;;9.80;8.63;;;;;;;;;;5039328;28;20519;-87
2022/07/21 17:49:50;;;;;;;10.13;9.13;;;;;;;;;;5032574;28;20185;-87
2022/07/21 17:52:54;;;;;;;9.50;8.60;;;;;;;;;;5043504;28;20720;-87
2022/07/21 17:55:58;;;;;;;9.33;8.53;;;;;;;;;;5032615;28;20690;-87
2022/07/21 17:59:02;;;;;;;9.87;8.70;;;;;;;;;;5053772;28;20199;-88
2022/07/21 18:02:06;;;;;;;10.03;8.97;;;;;;;;;;5049238;28;20224;-87
2022/07/21 18:05:11;;;;;;;10.33;9.17;;;;;;;;;;5021034;28;20196;-87
2022/07/21 18:08:14;;;;;;;10.23;8.80;;;;;;;;;;5043401;28;20188;-87
2022/07/21 18:11:19;;;;;;;10.30;8.87;;;;;;;;;;5046482;28;20226;-87
2022/07/21 18:14:23;;;;;;;9.53;8.63;;;;;;;;;;5041329;28;20196;-87